»·PEaware :: WAT169 KGJT-KSLC

WAT169 :: KGJT-KSLC

FLIGHT INFORMATION

Flight Status: Arrived
Operator:
Walker Air Transport
More flights by this operator :: More flights under this callsign
Pilot: Marty P. (27464)
Aircraft: BEECH AIRCRAFT SUPER KING AIR 350
(B350)
More flights by this aircraft type
Origin: KGJT Grand Junction Regl
United States
Destination: KSLC Salt Lake City Intl
United States
More flights between these airports :: More routes between these airports
Route: +JNC J12 HELPR SPANE7
File this flight plan on PilotEdge
Remarks:
Altitude:
(Current/Filed)
24,000ft
Speed:
(Current/Filed)
220kts
Departed: 11-Oct-20 02:47 PM
Arrived: 11-Oct-20 03:45 PM
Distance/Time
Traveled:
186nm/0:58
Distance/Time
To Go:
Arrived

Flight Plot

Page will automatically refresh every two minutes.

Flight plan parsing failed; only flown route is shown


Map Options




Map Legend


Flown Route
Filed Route
Departure Airport
Arrival Airport
Navaid (VOR, NDB)
Fix

Horizontal Profiles

Position Reports

Time Latitude Longitude Heading Altitude Ground
Speed
11-Oct-20 14:11 39.118977 -108.525518 135 4823ft 0kts
11-Oct-20 14:12 39.118977 -108.525518 135 4823ft 0kts
11-Oct-20 14:13 39.118977 -108.525518 135 4823ft 0kts
11-Oct-20 14:14 39.118977 -108.525518 135 4823ft 0kts
11-Oct-20 14:15 39.118977 -108.525518 135 4823ft 0kts
11-Oct-20 14:16 39.118977 -108.525518 135 4823ft 0kts
11-Oct-20 14:17 39.118977 -108.525518 135 4823ft 0kts
11-Oct-20 14:18 39.118977 -108.525518 135 4823ft 0kts
11-Oct-20 14:19 39.118977 -108.525518 135 4823ft 0kts
11-Oct-20 14:20 39.118977 -108.525518 135 4823ft 0kts
11-Oct-20 14:21 39.118977 -108.525518 135 4823ft 0kts
11-Oct-20 14:22 39.118977 -108.525518 135 4823ft 0kts
11-Oct-20 14:23 39.118977 -108.525518 135 4823ft 0kts
11-Oct-20 14:24 39.118977 -108.525518 135 4823ft 0kts
11-Oct-20 14:25 39.118977 -108.525518 135 4823ft 0kts
11-Oct-20 14:26 39.118977 -108.525518 135 4823ft 0kts
11-Oct-20 14:27 39.118977 -108.525518 135 4823ft 0kts
11-Oct-20 14:28 39.118977 -108.525518 135 4823ft 0kts
11-Oct-20 14:29 39.118977 -108.525518 135 4823ft 0kts
11-Oct-20 14:30 39.118977 -108.525518 135 4823ft 0kts
11-Oct-20 14:31 39.118977 -108.525518 135 4823ft 0kts
11-Oct-20 14:32 39.118977 -108.525518 135 4823ft 0kts
11-Oct-20 14:33 39.118977 -108.525518 135 4823ft 0kts
11-Oct-20 14:34 39.118977 -108.525518 135 4823ft 0kts
11-Oct-20 14:35 39.118977 -108.525518 135 4823ft 0kts
11-Oct-20 14:36 39.118703 -108.525558 211 4821ft 11kts
11-Oct-20 14:37 39.117775 -108.524562 125 4821ft 0kts
11-Oct-20 14:38 39.117775 -108.524562 125 4821ft 0kts
11-Oct-20 14:39 39.117742 -108.524504 125 4821ft 4kts
11-Oct-20 14:40 39.116002 -108.521352 135 4828ft 5kts
11-Oct-20 14:41 39.115795 -108.520866 70 4829ft 7kts
11-Oct-20 14:42 39.117157 -108.518368 54 4842ft 9kts
11-Oct-20 14:43 39.118015 -108.516827 53 4847ft 0kts
11-Oct-20 14:44 39.117972 -108.515387 52 4849ft 13kts
11-Oct-20 14:45 39.118778 -108.514852 305 4852ft 0kts
11-Oct-20 14:46 39.129707 -108.535874 303 5103ft 117kts
11-Oct-20 14:47 39.099589 -108.567851 208 6047ft 199kts
11-Oct-20 14:48 39.051389 -108.597375 208 7906ft 186kts
11-Oct-20 14:49 39.004589 -108.626406 208 9778ft 186kts
11-Oct-20 14:50 38.962300 -108.657904 261 11533ft 168kts
11-Oct-20 14:51 38.990487 -108.703243 306 13189ft 169kts
11-Oct-20 14:52 39.023219 -108.745657 306 14690ft 166kts
11-Oct-20 14:53 39.055710 -108.787593 306 16550ft 163kts
11-Oct-20 14:54 39.076953 -108.835407 291 18724ft 156kts
11-Oct-20 14:55 39.096051 -108.882497 291 20906ft 148kts
11-Oct-20 14:56 39.114730 -108.928607 291 22265ft 145kts
11-Oct-20 14:57 39.133069 -108.973953 291 23759ft 142kts
11-Oct-20 14:58 39.153241 -109.023948 292 24138ft 177kts
11-Oct-20 14:59 39.177616 -109.084348 293 24144ft 201kts
11-Oct-20 15:00 39.204556 -109.151313 293 24164ft 223kts
11-Oct-20 15:01 39.235252 -109.227778 294 24172ft 255kts
11-Oct-20 15:02 39.268951 -109.311935 294 24163ft 272kts
11-Oct-20 15:03 39.304116 -109.400015 295 24171ft 278kts
11-Oct-20 15:04 39.339771 -109.489605 295 24168ft 282kts
11-Oct-20 15:05 39.375660 -109.580052 295 24167ft 283kts
11-Oct-20 15:06 39.411599 -109.670909 295 24179ft 284kts
11-Oct-20 15:07 39.447711 -109.762465 295 24175ft 286kts
11-Oct-20 15:09 39.484020 -109.854777 295 24175ft 287kts
11-Oct-20 15:10 39.517684 -109.940616 295 24162ft 249kts
11-Oct-20 15:11 39.547517 -110.016997 296 24182ft 230kts
11-Oct-20 15:12 39.576370 -110.090913 296 24204ft 232kts
11-Oct-20 15:13 39.605946 -110.166928 296 24217ft 239kts
11-Oct-20 15:14 39.635851 -110.243934 296 24203ft 238kts
11-Oct-20 15:15 39.665581 -110.320727 296 24171ft 237kts
11-Oct-20 15:16 39.694877 -110.396630 296 24195ft 235kts
11-Oct-20 15:17 39.723988 -110.472176 296 24222ft 234kts
11-Oct-20 15:18 39.753190 -110.548172 296 24222ft 234kts
11-Oct-20 15:19 39.782348 -110.624309 297 24187ft 235kts
11-Oct-20 15:20 39.811364 -110.700208 296 24085ft 230kts
11-Oct-20 15:21 39.840142 -110.775689 296 23595ft 234kts
11-Oct-20 15:22 39.868850 -110.851191 296 23086ft 229kts
11-Oct-20 15:23 39.896883 -110.925123 296 22089ft 224kts
11-Oct-20 15:24 39.924336 -110.997646 296 20952ft 223kts
11-Oct-20 15:25 39.951662 -111.070045 296 19192ft 220kts
11-Oct-20 15:25 39.973988 -111.129399 295 17747ft 225kts
11-Oct-20 15:27 40.008609 -111.221589 296 16288ft 241kts
11-Oct-20 15:27 40.032799 -111.286113 296 16002ft 228kts
11-Oct-20 15:29 40.065081 -111.372485 296 16021ft 244kts
11-Oct-20 15:29 40.090188 -111.439795 296 15997ft 247kts
11-Oct-20 15:30 40.120388 -111.520938 296 16009ft 247kts
11-Oct-20 15:31 40.166664 -111.587782 313 14781ft 245kts
11-Oct-20 15:32 40.214207 -111.649794 313 13250ft 239kts
11-Oct-20 15:33 40.259692 -111.709091 313 11757ft 229kts
11-Oct-20 15:34 40.304870 -111.768115 313 11006ft 237kts
11-Oct-20 15:35 40.352542 -111.830519 313 10982ft 243kts
11-Oct-20 15:36 40.400339 -111.893211 313 10986ft 243kts
11-Oct-20 15:37 40.461294 -111.926762 350 10757ft 262kts
11-Oct-20 15:38 40.535052 -111.935266 352 9256ft 258kts
11-Oct-20 15:39 40.601903 -111.942982 352 7697ft 228kts
11-Oct-20 15:40 40.662907 -111.950050 352 6178ft 215kts
11-Oct-20 15:41 40.716170 -111.958244 352 5398ft 145kts
11-Oct-20 15:42 40.748020 -111.962058 357 4649ft 102kts
11-Oct-20 15:43 40.778948 -111.962082 358 4224ft 64kts
11-Oct-20 15:44 40.782419 -111.960870 87 4223ft 0kts
11-Oct-20 15:45 40.782421 -111.960791 87 4223ft 4kts
11-Oct-20 15:46 40.779236 -111.960020 180 4224ft 19kts
11-Oct-20 15:47 40.776995 -111.958958 52 4224ft 7kts
11-Oct-20 15:48 40.777058 -111.959022 258 4224ft 3kts
11-Oct-20 15:49 40.777058 -111.959218 269 4224ft 0kts
11-Oct-20 15:50 40.777058 -111.959218 269 4224ft 0kts
11-Oct-20 15:51 40.777058 -111.959218 268 4224ft 0kts
11-Oct-20 15:52 40.777058 -111.959218 268 4224ft 0kts
11-Oct-20 15:53 40.777058 -111.959218 268 4224ft 0kts
11-Oct-20 15:54 40.777058 -111.959218 268 4224ft 0kts
11-Oct-20 15:55 40.777058 -111.959218 268 4224ft 0kts
11-Oct-20 15:56 40.777058 -111.959218 268 4224ft 0kts
11-Oct-20 15:57 40.777058 -111.959218 268 4224ft 0kts
11-Oct-20 15:58 40.777058 -111.959218 268 4224ft 0kts

Navigation Log

Ident Type
Flight plan parsing failed, navigation log unavailable